createdAt,value
2024-01-31T00:00:29.274Z,99778.06
2024-01-31T00:02:32.005Z,99770.22
2024-01-31T00:04:34.830Z,99760.31
2024-01-31T00:06:37.785Z,99772.91
2024-01-31T00:08:41.226Z,99784.72
2024-01-31T00:10:44.158Z,99776.06
2024-01-31T00:12:47.064Z,99783.50
2024-01-31T00:14:49.972Z,99776.13
2024-01-31T00:16:52.833Z,99797.41
2024-01-31T00:18:55.932Z,99782.91
2024-01-31T00:20:58.931Z,99777.09
2024-01-31T00:23:01.712Z,99775.22
2024-01-31T00:25:04.874Z,99788.47
2024-01-31T00:27:07.892Z,99775.03
2024-01-31T00:29:10.625Z,99765.31
2024-01-31T00:31:13.908Z,99766.78
2024-01-31T00:33:16.732Z,99777.53
2024-01-31T00:35:19.582Z,99783.38
2024-01-31T00:37:22.463Z,99785.25
2024-01-31T00:39:29.620Z,99788.38
2024-01-31T00:41:32.720Z,99789.19
2024-01-31T00:43:35.820Z,99797.69
2024-01-31T00:45:38.641Z,99783.50
2024-01-31T00:47:42.392Z,99794.50
2024-01-31T00:49:45.294Z,99790.16
2024-01-31T00:51:48.192Z,99789.41
2024-01-31T00:53:50.892Z,99795.22
2024-01-31T00:55:53.703Z,99797.50
2024-01-31T00:57:56.629Z,99795.28
2024-01-31T00:59:59.442Z,99799.69
2024-01-31T01:02:02.349Z,99811.09
2024-01-31T01:04:05.404Z,99816.88
2024-01-31T01:06:08.232Z,99801.47
2024-01-31T01:08:11.090Z,99797.13
2024-01-31T01:10:16.925Z,99800.47
2024-01-31T01:12:19.986Z,99808.34
2024-01-31T01:14:22.898Z,99786.28
2024-01-31T01:16:25.845Z,99776.59
2024-01-31T01:18:28.690Z,99781.34
2024-01-31T01:20:31.622Z,99791.28
2024-01-31T01:22:34.545Z,99804.91
2024-01-31T01:24:37.519Z,99818.31
2024-01-31T01:26:43.282Z,99796.66
2024-01-31T01:28:46.149Z,99807.97
2024-01-31T01:30:48.905Z,99796.41
2024-01-31T01:32:51.853Z,99808.34
2024-01-31T01:34:54.672Z,99810.38
2024-01-31T01:36:57.586Z,99814.28
2024-01-31T01:39:00.512Z,99806.13
2024-01-31T01:41:03.789Z,99812.13
2024-01-31T01:43:18.987Z,99814.38
2024-01-31T01:45:21.993Z,99808.91
2024-01-31T01:47:26.129Z,99803.34
2024-01-31T01:49:30.701Z,99806.84
2024-01-31T01:51:34.217Z,99799.38
2024-01-31T01:53:40.310Z,99817.47
2024-01-31T01:55:44.460Z,99817.66
2024-01-31T01:57:47.772Z,99834.78
2024-01-31T01:59:51.582Z,99827.94
2024-01-31T02:01:54.547Z,99824.13
2024-01-31T02:04:00.374Z,99813.13
2024-01-31T02:06:04.103Z,99818.50
2024-01-31T02:08:07.963Z,99822.25
2024-01-31T02:10:11.272Z,99821.38
2024-01-31T02:12:15.295Z,99816.44
2024-01-31T02:14:18.367Z,99825.41
2024-01-31T02:16:21.384Z,99814.72
2024-01-31T02:18:28.907Z,99825.53
2024-01-31T02:20:31.657Z,99828.81
2024-01-31T02:22:34.712Z,99806.94
2024-01-31T02:24:37.469Z,99815.84
2024-01-31T02:26:40.281Z,99809.25
2024-01-31T02:28:43.106Z,99826.56
2024-01-31T02:30:45.941Z,99825.06
2024-01-31T02:32:48.768Z,99822.97
2024-01-31T02:34:51.808Z,99832.41
2024-01-31T02:36:54.677Z,99835.22
2024-01-31T02:38:57.617Z,99836.22
2024-01-31T02:41:00.369Z,99833.91
2024-01-31T02:43:03.303Z,99839.88
2024-01-31T02:45:06.671Z,99825.63
2024-01-31T02:47:09.515Z,99831.34
2024-01-31T02:49:12.299Z,99836.31
2024-01-31T02:51:15.122Z,99835.84
2024-01-31T02:53:18.113Z,99843.09
2024-01-31T02:55:20.970Z,99844.97
2024-01-31T02:57:23.783Z,99835.84
2024-01-31T02:59:26.608Z,99835.63
2024-01-31T03:01:29.590Z,99844.06
2024-01-31T03:03:32.563Z,99847.81
2024-01-31T03:05:35.451Z,99844.88
2024-01-31T03:07:38.385Z,99846.28
2024-01-31T03:09:41.929Z,99841.75
2024-01-31T03:11:44.677Z,99849.16
2024-01-31T03:13:47.991Z,99852.50
2024-01-31T03:15:50.909Z,99845.03
2024-01-31T03:17:54.126Z,99839.28
2024-01-31T03:19:58.012Z,99842.91
2024-01-31T03:22:08.864Z,99840.47
2024-01-31T03:24:14.652Z,99848.75
2024-01-31T03:26:17.414Z,99851.09
2024-01-31T03:28:21.918Z,99840.91
2024-01-31T03:30:24.823Z,99841.50
2024-01-31T03:32:27.740Z,99843.03
2024-01-31T03:34:30.474Z,99838.91
2024-01-31T03:36:36.545Z,99833.16
2024-01-31T03:38:42.965Z,99836.66
2024-01-31T03:40:46.037Z,99837.94
2024-01-31T03:42:48.948Z,99836.44
2024-01-31T03:44:51.860Z,99832.69
2024-01-31T03:46:54.715Z,99835.38
2024-01-31T03:48:58.172Z,99828.16
2024-01-31T03:51:01.532Z,99829.81
2024-01-31T03:53:04.387Z,99830.63
2024-01-31T03:55:07.547Z,99842.19
2024-01-31T03:57:10.861Z,99838.47
2024-01-31T03:59:13.615Z,99835.53
2024-01-31T04:01:18.442Z,99815.22
2024-01-31T04:03:22.619Z,99834.84
2024-01-31T04:05:25.706Z,99828.44
2024-01-31T04:07:29.692Z,99830.94
2024-01-31T04:09:32.482Z,99833.97
2024-01-31T04:11:35.904Z,99832.91
2024-01-31T04:13:39.124Z,99834.19
2024-01-31T04:15:42.330Z,99849.03
2024-01-31T04:17:45.524Z,99831.50
2024-01-31T04:19:50.611Z,99833.75
2024-01-31T04:21:55.112Z,99839.56
2024-01-31T04:23:57.981Z,99829.19
2024-01-31T04:26:03.116Z,99833.16
2024-01-31T04:28:06.110Z,99849.66
2024-01-31T04:30:12.639Z,99838.53
2024-01-31T04:32:15.429Z,99841.16
2024-01-31T04:34:18.229Z,99854.22
2024-01-31T04:36:21.083Z,99844.88
2024-01-31T04:38:23.904Z,99842.84
2024-01-31T04:40:26.724Z,99850.63
2024-01-31T04:42:29.496Z,99852.25
2024-01-31T04:44:32.219Z,99852.25
2024-01-31T04:46:35.485Z,99858.44
2024-01-31T04:48:38.417Z,99860.56
2024-01-31T04:50:41.258Z,99865.09
2024-01-31T04:52:44.118Z,99858.91
2024-01-31T04:54:46.861Z,99859.03
2024-01-31T04:56:49.638Z,99863.63
2024-01-31T04:58:52.352Z,99885.13
2024-01-31T05:00:55.059Z,99883.84
2024-01-31T05:02:57.844Z,99894.84
2024-01-31T05:05:01.821Z,99892.38
2024-01-31T05:07:06.575Z,99888.50
2024-01-31T05:09:10.236Z,99882.28
2024-01-31T05:11:16.064Z,99881.63
2024-01-31T05:13:18.813Z,99878.00
2024-01-31T05:15:21.580Z,99874.28
2024-01-31T05:17:24.355Z,99871.53
2024-01-31T05:19:30.726Z,99869.88
2024-01-31T05:21:34.299Z,99881.47
2024-01-31T05:23:37.000Z,99879.59
2024-01-31T05:25:39.868Z,99879.72
2024-01-31T05:27:42.775Z,99880.94
2024-01-31T05:29:45.700Z,99877.41
2024-01-31T05:31:48.506Z,99882.47
2024-01-31T05:33:53.084Z,99880.59
2024-01-31T05:35:55.817Z,99877.84
2024-01-31T05:37:58.531Z,99885.00
2024-01-31T05:40:01.543Z,99878.34
2024-01-31T05:42:06.064Z,99870.88
2024-01-31T05:44:08.929Z,99871.81
2024-01-31T05:46:11.711Z,99871.34
2024-01-31T05:48:15.877Z,99873.69
2024-01-31T05:50:18.871Z,99870.31
2024-01-31T05:52:21.672Z,99880.03
2024-01-31T05:54:24.403Z,99877.94
2024-01-31T05:56:27.284Z,99861.78
2024-01-31T05:58:30.498Z,99867.97
2024-01-31T06:00:33.174Z,99863.66
2024-01-31T06:02:35.874Z,99877.94
2024-01-31T06:04:38.673Z,99862.59
2024-01-31T06:06:41.471Z,99868.56
2024-01-31T06:08:44.159Z,99859.00
2024-01-31T06:10:48.461Z,99861.22
2024-01-31T06:12:51.685Z,99858.06
2024-01-31T06:14:54.448Z,99847.44
2024-01-31T06:16:57.125Z,99854.44
2024-01-31T06:19:03.361Z,99865.00
2024-01-31T06:21:06.691Z,99851.06
2024-01-31T06:23:11.352Z,99837.22
2024-01-31T06:25:14.215Z,99847.44
2024-01-31T06:27:17.042Z,99841.78
2024-01-31T06:29:20.279Z,99827.75
2024-01-31T06:31:27.835Z,99838.66
2024-01-31T06:33:33.255Z,99833.03
2024-01-31T06:35:36.927Z,99838.91
2024-01-31T06:37:39.837Z,99824.75
2024-01-31T06:39:42.714Z,99815.50
2024-01-31T06:41:45.644Z,99811.63
2024-01-31T06:43:48.429Z,99819.84
2024-01-31T06:45:51.152Z,99827.66
2024-01-31T06:47:54.723Z,99823.94
2024-01-31T06:49:57.627Z,99829.06
2024-01-31T06:52:00.378Z,99818.66
2024-01-31T06:54:03.022Z,99829.06
2024-01-31T06:56:06.216Z,99828.50
2024-01-31T06:58:08.957Z,99837.31
2024-01-31T07:00:12.024Z,99835.75
2024-01-31T07:02:14.833Z,99825.22
2024-01-31T07:04:17.604Z,99817.38
2024-01-31T07:06:20.397Z,99832.72
2024-01-31T07:08:23.177Z,99847.13
2024-01-31T07:10:26.088Z,99842.53
2024-01-31T07:12:28.796Z,99843.50
2024-01-31T07:14:31.505Z,99834.34
2024-01-31T07:16:36.969Z,99833.06
2024-01-31T07:18:44.850Z,99834.47
2024-01-31T07:20:47.802Z,99845.25
2024-01-31T07:22:50.582Z,99831.78
2024-01-31T07:24:53.362Z,99829.66
2024-01-31T07:26:56.592Z,99830.03
2024-01-31T07:29:00.242Z,99829.91
2024-01-31T07:31:04.092Z,99830.63
2024-01-31T07:33:07.268Z,99831.19
2024-01-31T07:35:11.203Z,99828.25
2024-01-31T07:37:14.614Z,99833.06
2024-01-31T07:39:17.706Z,99829.56
2024-01-31T07:41:21.813Z,99819.25
2024-01-31T07:43:25.631Z,99832.47
2024-01-31T07:45:28.606Z,99807.63
2024-01-31T07:47:31.362Z,99831.19
2024-01-31T07:49:34.219Z,99827.53
2024-01-31T07:51:44.346Z,99831.53
2024-01-31T07:53:47.062Z,99822.75
2024-01-31T07:55:49.904Z,99818.66
2024-01-31T07:57:52.706Z,99814.06
2024-01-31T07:59:55.640Z,99817.69
2024-01-31T08:01:58.444Z,99815.59
2024-01-31T08:04:01.375Z,99809.38
2024-01-31T08:06:06.629Z,99821.47
2024-01-31T08:08:09.490Z,99814.28
2024-01-31T08:10:13.907Z,99807.66
2024-01-31T08:12:16.870Z,99807.41
2024-01-31T08:14:19.904Z,99806.22
2024-01-31T08:16:22.841Z,99806.81
2024-01-31T08:18:25.551Z,99795.31
2024-01-31T08:20:28.901Z,99795.66
2024-01-31T08:22:36.858Z,99806.31
2024-01-31T08:24:41.629Z,99798.81
2024-01-31T08:26:44.313Z,99789.66
2024-01-31T08:28:48.608Z,99777.34
2024-01-31T08:30:52.794Z,99779.56
2024-01-31T08:32:55.914Z,99774.53
2024-01-31T08:35:17.204Z,99775.56
2024-01-31T08:37:19.991Z,99767.00
2024-01-31T08:39:24.239Z,99771.97
2024-01-31T08:41:27.034Z,99758.84
2024-01-31T08:43:29.798Z,99748.53
2024-01-31T08:45:32.573Z,99756.84
2024-01-31T08:47:35.403Z,99747.38
2024-01-31T08:49:38.772Z,99745.97
2024-01-31T08:51:42.103Z,99739.16
2024-01-31T08:53:44.854Z,99740.38
2024-01-31T08:55:58.280Z,99742.34
2024-01-31T08:58:07.729Z,99751.75
2024-01-31T09:00:11.581Z,99754.38
2024-01-31T09:02:14.629Z,99746.56
2024-01-31T09:04:20.342Z,99749.28
2024-01-31T09:06:25.071Z,99738.63
2024-01-31T09:08:28.527Z,99744.59
2024-01-31T09:10:31.217Z,99736.03
2024-01-31T09:12:34.176Z,99737.28
2024-01-31T09:14:37.068Z,99741.50
2024-01-31T09:16:39.851Z,99734.25
2024-01-31T09:18:42.715Z,99732.59
2024-01-31T09:20:45.526Z,99733.66
2024-01-31T09:22:48.403Z,99733.31
2024-01-31T09:24:51.444Z,99726.03
2024-01-31T09:26:54.238Z,99730.19
2024-01-31T09:28:59.072Z,99732.75
2024-01-31T09:31:02.203Z,99741.91
2024-01-31T09:33:05.090Z,99721.63
2024-01-31T09:35:08.647Z,99720.38
2024-01-31T09:37:11.780Z,99707.38
2024-01-31T09:39:15.798Z,99731.50
2024-01-31T09:41:18.936Z,99716.75
2024-01-31T09:43:21.916Z,99709.25
2024-01-31T09:45:29.252Z,99717.81
2024-01-31T09:47:32.695Z,99703.31
2024-01-31T09:49:35.804Z,99699.75
2024-01-31T09:51:39.092Z,99709.72
2024-01-31T09:53:46.555Z,99701.78
2024-01-31T09:55:53.601Z,99700.72
2024-01-31T09:57:57.326Z,99712.31
2024-01-31T10:00:02.240Z,99714.91
2024-01-31T10:02:11.113Z,99688.56
2024-01-31T10:04:16.299Z,99695.34
2024-01-31T10:06:21.213Z,99692.41
2024-01-31T10:08:24.528Z,99696.50
2024-01-31T10:10:27.374Z,99700.59
2024-01-31T10:12:30.206Z,99695.56
2024-01-31T10:14:32.985Z,99690.38
2024-01-31T10:16:36.551Z,99688.75
2024-01-31T10:18:40.207Z,99689.81
2024-01-31T10:20:45.689Z,99686.53
2024-01-31T10:22:48.509Z,99689.91
2024-01-31T10:24:52.082Z,99694.22
2024-01-31T10:26:56.346Z,99699.63
2024-01-31T10:29:08.378Z,99689.66
2024-01-31T10:31:14.813Z,99698.69
2024-01-31T10:33:18.510Z,99703.50
2024-01-31T10:35:33.837Z,99695.41
2024-01-31T10:37:55.887Z,99697.16
2024-01-31T10:40:02.113Z,99688.81
2024-01-31T10:42:10.034Z,99691.28
2024-01-31T10:44:16.471Z,99690.09
2024-01-31T10:46:20.008Z,99695.16
2024-01-31T10:48:22.999Z,99694.72
2024-01-31T10:50:26.140Z,99691.91
2024-01-31T10:52:34.489Z,99699.16
2024-01-31T10:54:44.436Z,99693.09
2024-01-31T10:56:48.437Z,99685.97
2024-01-31T10:58:52.678Z,99693.69
2024-01-31T11:00:56.885Z,99683.63
2024-01-31T11:03:01.741Z,99684.31
2024-01-31T11:05:05.757Z,99681.78
2024-01-31T11:07:23.269Z,99683.63
2024-01-31T11:09:27.964Z,99685.59
2024-01-31T11:11:30.679Z,99693.09
2024-01-31T11:13:37.756Z,99678.00
2024-01-31T11:15:41.644Z,99689.38
2024-01-31T11:17:46.536Z,99679.88
2024-01-31T11:19:52.896Z,99679.31
2024-01-31T11:21:55.936Z,99688.31
2024-01-31T11:23:58.709Z,99687.72
2024-01-31T11:26:03.699Z,99683.41
2024-01-31T11:28:06.808Z,99677.44
2024-01-31T11:30:11.876Z,99683.75
2024-01-31T11:32:14.866Z,99692.56
2024-01-31T11:34:18.104Z,99685.19
2024-01-31T11:36:20.895Z,99687.72
2024-01-31T11:38:23.671Z,99678.03
2024-01-31T11:40:27.020Z,99684.81
2024-01-31T11:42:31.690Z,99695.94
2024-01-31T11:44:36.825Z,99689.25
2024-01-31T11:46:39.744Z,99687.84
2024-01-31T11:53:59.171Z,99686.66
2024-01-31T11:56:02.333Z,99679.63
2024-01-31T11:58:05.191Z,99682.09
2024-01-31T12:00:08.753Z,99668.84
2024-01-31T12:02:11.633Z,99675.53
2024-01-31T12:04:14.904Z,99694.94
2024-01-31T12:06:20.891Z,99674.69
2024-01-31T12:08:28.417Z,99688.34
2024-01-31T12:10:31.682Z,99670.13
2024-01-31T12:12:42.814Z,99676.78
2024-01-31T12:14:46.020Z,99680.63
2024-01-31T12:16:48.752Z,99669.97
2024-01-31T12:19:02.365Z,99659.56
2024-01-31T12:21:06.944Z,99665.03
2024-01-31T12:23:10.031Z,99677.19
2024-01-31T12:25:12.899Z,99679.97
2024-01-31T12:27:17.753Z,99676.53
2024-01-31T12:29:22.724Z,99650.94
2024-01-31T12:31:25.965Z,99655.81
2024-01-31T12:33:28.768Z,99666.63
2024-01-31T12:35:31.645Z,99641.88
2024-01-31T12:37:35.230Z,99653.41
2024-01-31T12:39:38.068Z,99668.31
2024-01-31T12:41:41.167Z,99671.69
2024-01-31T12:43:43.942Z,99654.38
2024-01-31T12:45:47.347Z,99650.13
2024-01-31T12:47:51.141Z,99658.84
2024-01-31T12:49:54.043Z,99649.47
2024-01-31T12:51:56.860Z,99653.88
2024-01-31T12:53:59.558Z,99660.50
2024-01-31T12:56:02.316Z,99663.88
2024-01-31T12:58:05.114Z,99651.13
2024-01-31T13:00:08.403Z,99674.66
2024-01-31T13:02:11.219Z,99647.09
2024-01-31T13:04:14.048Z,99648.56
2024-01-31T13:06:17.532Z,99665.78
2024-01-31T13:08:20.903Z,99656.13
2024-01-31T13:10:24.030Z,99661.56
2024-01-31T13:12:26.776Z,99651.94
2024-01-31T13:14:29.964Z,99653.03
2024-01-31T13:16:39.320Z,99660.91
2024-01-31T13:18:49.255Z,99652.31
2024-01-31T13:20:52.394Z,99669.72
2024-01-31T13:22:55.187Z,99657.84
2024-01-31T13:24:58.064Z,99652.50
2024-01-31T13:27:00.850Z,99659.09
2024-01-31T13:29:04.132Z,99662.66
2024-01-31T13:31:06.813Z,99663.28
2024-01-31T13:33:09.634Z,99673.63
2024-01-31T13:35:12.922Z,99669.50
2024-01-31T13:37:15.703Z,99674.28
2024-01-31T13:39:18.537Z,99665.84
2024-01-31T13:41:24.954Z,99674.31
2024-01-31T13:43:27.639Z,99656.81
2024-01-31T13:45:30.454Z,99664.44
2024-01-31T13:47:33.296Z,99668.59
2024-01-31T13:49:36.375Z,99669.19
2024-01-31T13:51:43.865Z,99676.03
2024-01-31T13:53:46.775Z,99671.09
2024-01-31T13:55:49.781Z,99680.19
2024-01-31T13:57:52.717Z,99668.69
2024-01-31T13:59:55.656Z,99678.75
2024-01-31T14:01:58.507Z,99684.09
2024-01-31T14:04:01.726Z,99688.03
2024-01-31T14:06:04.898Z,99672.00
2024-01-31T14:08:08.579Z,99671.75
2024-01-31T14:10:12.473Z,99682.91
2024-01-31T14:12:15.988Z,99680.66
2024-01-31T14:14:19.748Z,99690.56
2024-01-31T14:16:22.470Z,99673.44
2024-01-31T14:18:25.591Z,99683.38
2024-01-31T14:20:28.830Z,99672.84
2024-01-31T14:24:38.175Z,99658.28
2024-01-31T14:26:40.975Z,99660.09
2024-01-31T14:28:43.760Z,99679.09
2024-01-31T14:30:47.049Z,99675.19
2024-01-31T14:32:52.214Z,99671.69
2024-01-31T14:34:56.391Z,99667.56
2024-01-31T14:37:00.101Z,99671.88
2024-01-31T14:39:03.503Z,99673.72
2024-01-31T14:41:06.294Z,99656.84
2024-01-31T14:43:09.081Z,99679.28
2024-01-31T14:45:12.046Z,99671.06
2024-01-31T14:47:15.249Z,99660.34
2024-01-31T14:49:19.324Z,99670.00
2024-01-31T14:51:22.179Z,99678.25
2024-01-31T14:53:25.122Z,99676.00
2024-01-31T14:55:28.004Z,99678.91
2024-01-31T14:57:30.699Z,99694.97
2024-01-31T14:59:36.303Z,99670.88
2024-01-31T15:01:39.990Z,99677.03
2024-01-31T15:03:42.794Z,99671.28
2024-01-31T15:05:46.192Z,99667.34
2024-01-31T15:07:51.768Z,99663.25
2024-01-31T15:09:55.650Z,99664.06
2024-01-31T15:12:00.113Z,99669.00
2024-01-31T15:14:06.161Z,99667.97
2024-01-31T15:16:15.107Z,99662.59
2024-01-31T15:18:18.980Z,99665.09
2024-01-31T15:20:22.014Z,99650.66
2024-01-31T15:22:27.680Z,99663.84
2024-01-31T15:24:30.543Z,99647.78
2024-01-31T15:26:36.974Z,99645.72
2024-01-31T15:29:05.933Z,99642.25
2024-01-31T15:31:17.141Z,99647.78
2024-01-31T15:33:22.066Z,99639.94
2024-01-31T15:35:25.048Z,99642.44
2024-01-31T15:37:27.944Z,99641.19
2024-01-31T15:39:30.742Z,99642.00
2024-01-31T15:41:36.857Z,99638.53
2024-01-31T15:43:43.856Z,99638.75
2024-01-31T15:45:47.147Z,99638.13
2024-01-31T15:47:50.421Z,99636.72
2024-01-31T15:49:53.544Z,99639.78
2024-01-31T15:51:56.258Z,99632.16
2024-01-31T15:53:58.919Z,99639.59
2024-01-31T15:56:05.103Z,99628.88
2024-01-31T15:58:07.871Z,99635.06
2024-01-31T16:00:11.527Z,99635.66
2024-01-31T16:02:14.458Z,99636.47
2024-01-31T16:04:17.243Z,99632.16
2024-01-31T16:06:20.221Z,99626.81
2024-01-31T16:08:23.489Z,99626.22
2024-01-31T16:10:30.071Z,99632.16
2024-01-31T16:12:33.745Z,99619.88
2024-01-31T16:14:39.337Z,99617.38
2024-01-31T16:16:43.092Z,99626.22
2024-01-31T16:18:46.064Z,99625.41
2024-01-31T16:20:49.012Z,99615.50
2024-01-31T16:22:52.003Z,99624.97
2024-01-31T16:24:55.182Z,99616.94
2024-01-31T16:26:58.043Z,99626.03
2024-01-31T16:29:00.763Z,99608.31
2024-01-31T16:31:04.714Z,99619.00
2024-01-31T16:33:07.838Z,99616.34
2024-01-31T16:35:10.629Z,99596.19
2024-01-31T16:37:13.352Z,99603.19
2024-01-31T16:39:17.328Z,99591.06
2024-01-31T16:41:23.940Z,99597.44
2024-01-31T16:43:26.726Z,99601.34
2024-01-31T16:45:29.558Z,99587.97
2024-01-31T16:47:32.447Z,99591.69
2024-01-31T16:49:35.403Z,99597.25
2024-01-31T16:51:38.203Z,99599.13
2024-01-31T16:53:40.932Z,99595.38
2024-01-31T16:55:43.657Z,99606.09
2024-01-31T16:57:46.435Z,99596.00
2024-01-31T16:59:49.350Z,99584.50
2024-01-31T17:01:52.048Z,99583.50
2024-01-31T17:03:54.993Z,99585.59
2024-01-31T17:05:58.009Z,99584.69
2024-01-31T17:08:00.955Z,99590.50
2024-01-31T17:10:04.974Z,99583.25
2024-01-31T17:12:07.943Z,99573.03
2024-01-31T17:14:10.817Z,99582.06
2024-01-31T17:16:15.651Z,99576.72
2024-01-31T17:18:21.716Z,99576.50
2024-01-31T17:20:25.157Z,99571.97
2024-01-31T17:22:27.870Z,99581.66
2024-01-31T17:24:30.561Z,99569.09
2024-01-31T17:26:33.443Z,99574.22
2024-01-31T17:28:36.332Z,99558.97
2024-01-31T17:30:43.325Z,99573.63
2024-01-31T17:32:46.355Z,99559.41
2024-01-31T17:34:49.194Z,99569.69
2024-01-31T17:36:52.059Z,99546.63
2024-01-31T17:38:54.866Z,99557.13
2024-01-31T17:40:57.564Z,99551.16
2024-01-31T17:43:00.632Z,99545.59
2024-01-31T17:45:03.696Z,99549.09
2024-01-31T17:47:07.215Z,99550.13
2024-01-31T17:49:09.937Z,99545.59
2024-01-31T17:51:12.817Z,99539.19
2024-01-31T17:53:15.689Z,99540.03
2024-01-31T17:55:20.264Z,99550.72
2024-01-31T17:57:22.992Z,99539.44
2024-01-31T17:59:25.733Z,99546.88
2024-01-31T18:01:28.500Z,99525.28
2024-01-31T18:03:33.287Z,99538.00
2024-01-31T18:05:36.115Z,99524.41
2024-01-31T18:07:38.891Z,99528.75
2024-01-31T18:09:41.792Z,99513.75
2024-01-31T18:11:44.575Z,99517.47
2024-01-31T18:13:51.410Z,99519.53
2024-01-31T18:15:54.340Z,99510.25
2024-01-31T18:17:57.408Z,99501.41
2024-01-31T18:20:00.586Z,99519.06
2024-01-31T18:22:06.288Z,99490.09
2024-01-31T18:24:09.218Z,99503.22
2024-01-31T18:26:20.260Z,99497.66
2024-01-31T18:28:24.321Z,99492.09
2024-01-31T18:30:27.096Z,99490.69
2024-01-31T18:32:29.889Z,99497.06
2024-01-31T18:34:33.677Z,99492.53
2024-01-31T18:36:36.688Z,99486.38
2024-01-31T18:38:40.675Z,99480.41
2024-01-31T18:40:43.373Z,99483.94
2024-01-31T18:42:46.078Z,99475.06
2024-01-31T18:44:48.960Z,99481.25
2024-01-31T18:46:54.398Z,99469.50
2024-01-31T18:48:57.435Z,99464.16
2024-01-31T18:51:01.399Z,99459.00
2024-01-31T18:53:04.430Z,99466.41
2024-01-31T18:55:07.668Z,99455.16
2024-01-31T18:57:10.390Z,99462.56
2024-01-31T18:59:13.176Z,99450.44
2024-01-31T19:01:16.914Z,99447.53
2024-01-31T19:03:19.675Z,99454.31
2024-01-31T19:05:24.575Z,99450.81
2024-01-31T19:07:27.581Z,99447.13
2024-01-31T19:09:30.398Z,99439.91
2024-01-31T19:11:33.171Z,99440.50
2024-01-31T19:13:39.002Z,99441.31
2024-01-31T19:15:41.719Z,99437.84
2024-01-31T19:17:48.772Z,99437.22
2024-01-31T19:19:52.328Z,99429.22
2024-01-31T19:21:55.058Z,99431.28
2024-01-31T19:23:57.848Z,99431.06
2024-01-31T19:26:00.789Z,99430.63
2024-01-31T19:28:04.783Z,99437.84
2024-01-31T19:30:15.800Z,99423.41
2024-01-31T19:32:20.331Z,99426.09
2024-01-31T19:34:23.180Z,99430.03
2024-01-31T19:36:27.342Z,99425.72
2024-01-31T19:38:30.156Z,99416.03
2024-01-31T19:40:32.951Z,99429.84
2024-01-31T19:42:36.307Z,99406.88
2024-01-31T19:44:39.211Z,99422.28
2024-01-31T19:46:44.759Z,99434.19
2024-01-31T19:48:49.569Z,99428.63
2024-01-31T19:50:52.634Z,99425.75
2024-01-31T19:52:55.276Z,99431.09
2024-01-31T19:54:58.322Z,99413.03
2024-01-31T19:57:01.204Z,99419.41
2024-01-31T19:59:04.172Z,99409.75
2024-01-31T20:01:06.978Z,99410.34
2024-01-31T20:03:09.801Z,99406.63
2024-01-31T20:05:12.643Z,99414.66
2024-01-31T20:07:15.408Z,99403.16
2024-01-31T20:09:18.201Z,99375.34
2024-01-31T20:11:21.109Z,99395.53
2024-01-31T20:13:23.818Z,99388.91
2024-01-31T20:15:26.521Z,99390.75
2024-01-31T20:17:30.499Z,99393.81
2024-01-31T20:19:33.304Z,99381.50
2024-01-31T20:21:36.238Z,99393.22
2024-01-31T20:23:39.846Z,99388.47
2024-01-31T20:25:42.606Z,99384.53
2024-01-31T20:27:45.498Z,99381.25
2024-01-31T20:29:48.210Z,99374.28
2024-01-31T20:31:50.955Z,99383.13
2024-01-31T20:33:54.346Z,99373.47
2024-01-31T20:35:57.162Z,99371.63
2024-01-31T20:37:59.880Z,99371.38
2024-01-31T20:40:02.717Z,99373.25
2024-01-31T20:42:06.646Z,99368.13
2024-01-31T20:44:09.438Z,99371.00
2024-01-31T20:46:19.468Z,99364.84
2024-01-31T20:48:29.849Z,99362.38
2024-01-31T20:50:41.097Z,99354.56
2024-01-31T20:52:43.810Z,99349.44
2024-01-31T20:54:47.594Z,99353.75
2024-01-31T20:56:50.708Z,99355.81
2024-01-31T20:58:53.458Z,99360.16
2024-01-31T21:00:56.161Z,99349.88
2024-01-31T21:02:58.970Z,99348.25
2024-01-31T21:05:01.677Z,99346.16
2024-01-31T21:07:07.980Z,99341.84
2024-01-31T21:09:11.059Z,99342.25
2024-01-31T21:11:13.879Z,99345.50
2024-01-31T21:13:17.818Z,99343.88
2024-01-31T21:15:20.782Z,99338.31
2024-01-31T21:17:23.515Z,99327.81
2024-01-31T21:19:26.254Z,99342.25
2024-01-31T21:21:28.968Z,99324.78
2024-01-31T21:23:32.847Z,99322.91
2024-01-31T21:25:35.631Z,99316.75
2024-01-31T21:27:38.467Z,99331.13
2024-01-31T21:29:41.601Z,99327.03
2024-01-31T21:31:44.351Z,99322.75
2024-01-31T21:33:47.194Z,99321.09
2024-01-31T21:35:52.026Z,99319.06
2024-01-31T21:37:54.804Z,99309.63
2024-01-31T21:39:57.656Z,99308.00
2024-01-31T21:42:00.403Z,99311.50
2024-01-31T21:44:03.587Z,99313.34
2024-01-31T21:46:07.045Z,99316.03
2024-01-31T21:48:11.162Z,99310.69
2024-01-31T21:50:14.347Z,99310.69
2024-01-31T21:52:17.326Z,99310.88
2024-01-31T21:54:20.023Z,99314.81
2024-01-31T21:56:22.782Z,99315.63
2024-01-31T21:58:25.630Z,99321.63
2024-01-31T22:00:28.390Z,99320.22
2024-01-31T22:02:31.113Z,99310.59
2024-01-31T22:04:34.077Z,99322.50
2024-01-31T22:06:36.935Z,99301.56
2024-01-31T22:08:39.970Z,99305.47
2024-01-31T22:10:42.790Z,99314.31
2024-01-31T22:12:45.537Z,99304.44
2024-01-31T22:14:48.283Z,99302.22
2024-01-31T22:16:51.246Z,99301.16
2024-01-31T22:18:54.200Z,99315.78
2024-01-31T22:20:57.145Z,99306.09
2024-01-31T22:22:59.950Z,99301.81
2024-01-31T22:25:04.011Z,99298.69
2024-01-31T22:27:07.389Z,99293.34
2024-01-31T22:29:10.183Z,99289.88
2024-01-31T22:31:13.035Z,99302.22
2024-01-31T22:33:16.994Z,99293.59
2024-01-31T22:35:19.998Z,99281.28
2024-01-31T22:37:22.674Z,99290.56
2024-01-31T22:39:25.458Z,99278.88
2024-01-31T22:41:28.247Z,99278.28
2024-01-31T22:43:30.939Z,99266.81
2024-01-31T22:45:33.859Z,99264.13
2024-01-31T22:47:36.723Z,99265.75
2024-01-31T22:49:39.721Z,99256.72
2024-01-31T22:51:42.612Z,99258.16
2024-01-31T22:53:45.379Z,99258.34
2024-01-31T22:55:48.277Z,99261.47
2024-01-31T22:57:51.140Z,99260.47
2024-01-31T22:59:54.599Z,99257.44
2024-01-31T23:01:57.472Z,99254.81
2024-01-31T23:04:04.518Z,99250.34
2024-01-31T23:06:07.831Z,99254.66
2024-01-31T23:08:10.655Z,99249.16
2024-01-31T23:10:13.354Z,99253.69
2024-01-31T23:12:18.446Z,99259.47
2024-01-31T23:14:21.734Z,99263.59
2024-01-31T23:16:24.423Z,99256.66
2024-01-31T23:18:27.538Z,99251.50
2024-01-31T23:20:30.409Z,99257.66
2024-01-31T23:22:33.093Z,99262.81
2024-01-31T23:24:35.786Z,99246.41
2024-01-31T23:26:39.157Z,99248.84
2024-01-31T23:28:45.107Z,99253.38
2024-01-31T23:30:47.880Z,99250.09
2024-01-31T23:32:51.564Z,99246.59
2024-01-31T23:34:54.433Z,99242.50
2024-01-31T23:36:57.226Z,99249.72
2024-01-31T23:39:00.610Z,99240.22
2024-01-31T23:41:04.521Z,99239.22
2024-01-31T23:43:07.290Z,99239.41
2024-01-31T23:45:10.501Z,99232.84
2024-01-31T23:47:13.200Z,99234.31
2024-01-31T23:49:16.003Z,99238.00
2024-01-31T23:51:19.792Z,99235.94
2024-01-31T23:53:23.396Z,99231.84
2024-01-31T23:55:26.123Z,99229.81
2024-01-31T23:57:28.859Z,99240.06
2024-01-31T23:59:31.584Z,99228.56
